createdAt,value
2018-08-30T00:04:36.192Z,27.97
2018-08-30T00:07:05.986Z,25.90
2018-08-30T00:09:36.305Z,26.80
2018-08-30T00:12:05.032Z,27.37
2018-08-30T00:14:34.317Z,27.27
2018-08-30T00:17:03.443Z,24.87
2018-08-30T00:19:32.872Z,22.33
2018-08-30T00:22:02.039Z,24.50
2018-08-30T00:24:30.233Z,24.20
2018-08-30T00:26:58.508Z,22.77
2018-08-30T00:29:26.893Z,22.90
2018-08-30T00:31:55.052Z,20.97
2018-08-30T00:34:24.778Z,24.07
2018-08-30T00:36:53.935Z,23.13
2018-08-30T00:39:26.091Z,23.27
2018-08-30T00:41:54.426Z,22.67
2018-08-30T00:44:23.164Z,22.83
2018-08-30T00:46:51.398Z,23.60
2018-08-30T00:49:20.678Z,20.40
2018-08-30T00:51:49.225Z,20.80
2018-08-30T00:54:17.432Z,22.87
2018-08-30T00:56:45.708Z,21.43
2018-08-30T00:59:14.012Z,22.40
2018-08-30T01:01:42.415Z,19.27
2018-08-30T01:04:11.577Z,20.03
2018-08-30T01:06:40.288Z,21.20
2018-08-30T01:09:09.269Z,19.77
2018-08-30T01:11:41.759Z,21.13
2018-08-30T01:14:10.204Z,18.17
2018-08-30T01:16:38.497Z,17.40
2018-08-30T01:19:06.945Z,15.23
2018-08-30T01:21:35.122Z,16.23
2018-08-30T01:24:03.345Z,14.53
2018-08-30T01:26:31.509Z,16.13
2018-08-30T01:28:59.815Z,14.27
2018-08-30T01:31:28.857Z,18.40
2018-08-30T01:33:57.378Z,15.50
2018-08-30T01:36:25.814Z,18.00
2018-08-30T01:38:54.327Z,19.33
2018-08-30T01:41:23.213Z,20.00
2018-08-30T01:43:51.492Z,26.77
2018-08-30T01:46:19.839Z,26.53
2018-08-30T01:48:48.205Z,29.70
2018-08-30T01:51:16.498Z,32.67
2018-08-30T01:53:46.828Z,32.40
2018-08-30T01:56:15.207Z,33.80
2018-08-30T01:58:43.966Z,34.90
2018-08-30T02:01:12.189Z,32.90
2018-08-30T02:03:40.837Z,36.10
2018-08-30T02:06:08.997Z,34.80
2018-08-30T02:08:37.273Z,35.83
2018-08-30T02:11:05.494Z,37.83
2018-08-30T02:13:37.029Z,35.97
2018-08-30T02:16:05.689Z,35.70
2018-08-30T02:18:33.997Z,35.57
2018-08-30T02:21:02.136Z,37.30
2018-08-30T02:23:30.355Z,34.07
2018-08-30T02:25:58.532Z,34.93
2018-08-30T02:28:26.762Z,37.17
2018-08-30T02:30:55.028Z,36.93
2018-08-30T02:33:23.215Z,31.50
2018-08-30T02:35:51.319Z,31.37
2018-08-30T02:38:19.401Z,33.37
2018-08-30T02:40:47.594Z,30.97
2018-08-30T02:43:15.690Z,29.13
2018-08-30T02:45:43.882Z,29.67
2018-08-30T02:48:11.921Z,31.33
2018-08-30T02:50:40.417Z,32.93
2018-08-30T02:53:08.896Z,35.07
2018-08-30T02:55:37.176Z,32.70
2018-08-30T02:58:06.277Z,34.00
2018-08-30T03:00:34.390Z,32.67
2018-08-30T03:03:02.549Z,32.33
2018-08-30T03:05:31.171Z,31.87
2018-08-30T03:07:59.527Z,31.47
2018-08-30T03:10:30.534Z,28.67
2018-08-30T03:12:58.705Z,30.83
2018-08-30T03:15:30.109Z,32.43
2018-08-30T03:17:58.302Z,34.73
2018-08-30T03:20:26.425Z,30.70
2018-08-30T03:22:54.589Z,30.57
2018-08-30T03:25:22.676Z,29.47
2018-08-30T03:27:50.708Z,32.63
2018-08-30T03:30:18.836Z,27.00
2018-08-30T03:32:46.924Z,25.87
2018-08-30T03:35:15.221Z,26.07
2018-08-30T03:37:44.043Z,27.40
2018-08-30T03:40:12.186Z,22.77
2018-08-30T03:42:40.272Z,24.87
2018-08-30T03:45:08.437Z,18.83
2018-08-30T03:47:36.583Z,18.57
2018-08-30T03:50:04.769Z,25.57
2018-08-30T03:52:32.977Z,13.13
2018-08-30T03:55:01.155Z,11.93
2018-08-30T03:57:29.247Z,13.57
2018-08-30T03:59:57.512Z,12.50
2018-08-30T04:02:25.705Z,13.30
2018-08-30T04:04:53.801Z,12.47
2018-08-30T04:07:21.850Z,9.00
2018-08-30T04:09:50.462Z,14.70
2018-08-30T04:12:18.931Z,7.73
2018-08-30T04:14:47.454Z,7.07
2018-08-30T04:17:16.627Z,7.07
2018-08-30T04:19:45.118Z,9.27
2018-08-30T04:22:13.228Z,10.33
2018-08-30T04:24:45.529Z,10.03
2018-08-30T04:27:14.459Z,9.07
2018-08-30T04:29:42.603Z,8.10
2018-08-30T04:32:10.961Z,7.97
2018-08-30T04:34:39.321Z,7.57
2018-08-30T04:37:07.423Z,6.23
2018-08-30T04:39:35.440Z,9.33
2018-08-30T04:42:03.738Z,5.33
2018-08-30T04:44:31.798Z,4.63
2018-08-30T04:47:00.112Z,4.60
2018-08-30T04:49:28.223Z,9.57
2018-08-30T04:51:56.287Z,22.73
2018-08-30T04:54:24.576Z,4.03
2018-08-30T04:56:52.712Z,3.53
2018-08-30T04:59:20.761Z,8.27
2018-08-30T05:01:49.040Z,4.63
2018-08-30T05:04:18.488Z,3.77
2018-08-30T05:06:46.629Z,4.43
2018-08-30T05:09:14.718Z,8.33
2018-08-30T05:11:42.841Z,5.33
2018-08-30T05:14:11.134Z,2.93
2018-08-30T05:16:39.384Z,2.60
2018-08-30T05:19:08.267Z,5.03
2018-08-30T05:21:36.378Z,3.00
2018-08-30T05:24:04.502Z,4.73
2018-08-30T05:26:33.473Z,1.93
2018-08-30T05:29:01.496Z,3.10
2018-08-30T05:31:32.525Z,2.57
2018-08-30T05:34:00.717Z,5.27
2018-08-30T05:36:28.854Z,2.30
2018-08-30T05:38:57.140Z,2.97
2018-08-30T05:41:25.309Z,2.23
2018-08-30T05:43:53.559Z,1.60
2018-08-30T05:46:22.729Z,3.00
2018-08-30T05:48:50.807Z,2.90
2018-08-30T05:51:20.721Z,1.90
2018-08-30T05:53:48.860Z,2.63
2018-08-30T05:56:17.133Z,1.43
2018-08-30T05:58:45.190Z,1.47
2018-08-30T06:01:13.479Z,3.20
2018-08-30T06:03:41.633Z,1.20
2018-08-30T06:06:09.948Z,2.87
2018-08-30T06:08:38.109Z,1.30
2018-08-30T06:11:06.426Z,1.57
2018-08-30T06:13:34.512Z,2.07
2018-08-30T06:16:02.655Z,1.10
2018-08-30T06:18:30.924Z,1.23
2018-08-30T06:21:00.121Z,3.00
2018-08-30T06:23:28.245Z,2.07
2018-08-30T06:25:57.333Z,2.30
2018-08-30T06:28:25.385Z,1.83
2018-08-30T06:30:53.750Z,1.10
2018-08-30T06:33:21.834Z,2.07
2018-08-30T06:35:50.780Z,2.63
2018-08-30T06:38:20.038Z,1.43
2018-08-30T06:40:48.186Z,1.30
2018-08-30T06:43:16.696Z,1.53
2018-08-30T06:45:48.070Z,3.67
2018-08-30T06:48:16.083Z,2.27
2018-08-30T06:50:45.446Z,3.20
2018-08-30T06:53:13.567Z,2.03
2018-08-30T06:55:45.418Z,1.73
2018-08-30T06:58:13.735Z,2.63
2018-08-30T07:00:41.882Z,2.73
2018-08-30T07:03:10.083Z,2.23
2018-08-30T07:05:38.310Z,3.60
2018-08-30T07:08:06.535Z,3.87
2018-08-30T07:10:34.610Z,3.77
2018-08-30T07:13:02.696Z,4.37
2018-08-30T07:15:30.942Z,4.60
2018-08-30T07:17:59.028Z,5.60
2018-08-30T07:20:27.207Z,5.27
2018-08-30T07:22:56.079Z,5.07
2018-08-30T07:25:24.282Z,6.03
2018-08-30T07:27:52.355Z,5.93
2018-08-30T07:30:20.580Z,7.77
2018-08-30T07:32:51.653Z,6.13
2018-08-30T07:35:19.933Z,6.10
2018-08-30T07:37:48.049Z,7.47
2018-08-30T07:40:17.201Z,8.90
2018-08-30T07:42:45.867Z,6.27
2018-08-30T07:45:13.906Z,6.30
2018-08-30T07:47:42.107Z,6.37
2018-08-30T07:50:10.420Z,7.67
2018-08-30T07:52:38.590Z,8.80
2018-08-30T07:55:06.725Z,6.67
2018-08-30T07:57:35.605Z,10.60
2018-08-30T08:00:05.504Z,7.47
2018-08-30T08:02:34.735Z,8.43
2018-08-30T08:05:02.808Z,8.43
2018-08-30T08:07:31.739Z,7.77
2018-08-30T08:10:00.042Z,8.30
2018-08-30T08:12:29.774Z,7.80
2018-08-30T08:15:00.221Z,8.17
2018-08-30T08:17:28.332Z,9.30
2018-08-30T08:19:56.456Z,8.00
2018-08-30T08:22:27.605Z,9.50
2018-08-30T08:24:56.481Z,11.73
2018-08-30T08:27:25.628Z,8.90
2018-08-30T08:29:54.402Z,11.10
2018-08-30T08:32:24.531Z,9.33
2018-08-30T08:34:52.794Z,8.93
2018-08-30T08:37:20.889Z,10.60
2018-08-30T08:39:49.081Z,11.77
2018-08-30T08:42:20.528Z,10.73
2018-08-30T08:44:48.641Z,9.17
2018-08-30T08:47:19.142Z,9.60
2018-08-30T08:49:48.449Z,8.30
2018-08-30T08:52:18.487Z,9.23
2018-08-30T08:54:46.794Z,8.93
2018-08-30T08:57:15.942Z,12.57
2018-08-30T08:59:43.981Z,7.73
2018-08-30T09:02:13.028Z,7.57
2018-08-30T09:04:41.495Z,9.30
2018-08-30T09:07:09.817Z,7.13
2018-08-30T09:09:38.908Z,7.67
2018-08-30T09:12:07.001Z,9.23
2018-08-30T09:14:35.113Z,9.10
2018-08-30T09:17:04.230Z,9.27
2018-08-30T09:19:33.044Z,6.87
2018-08-30T09:22:01.296Z,10.70
2018-08-30T09:24:29.440Z,7.30
2018-08-30T09:26:58.928Z,9.07
2018-08-30T09:29:27.070Z,8.10
2018-08-30T09:31:55.192Z,7.43
2018-08-30T09:34:23.381Z,7.47
2018-08-30T09:36:52.453Z,8.20
2018-08-30T09:39:22.836Z,7.30
2018-08-30T09:41:51.903Z,7.47
2018-08-30T09:44:20.365Z,8.63
2018-08-30T09:46:49.254Z,7.97
2018-08-30T09:49:17.477Z,8.33
2018-08-30T09:51:46.353Z,8.33
2018-08-30T09:54:14.630Z,8.93
2018-08-30T09:56:42.950Z,9.37
2018-08-30T09:59:11.899Z,8.03
2018-08-30T10:01:49.602Z,10.70
2018-08-30T10:04:18.747Z,9.03
2018-08-30T10:06:47.769Z,11.20
2018-08-30T10:09:16.685Z,10.30
2018-08-30T10:11:44.808Z,9.50
2018-08-30T10:14:13.008Z,10.07
2018-08-30T10:16:41.253Z,9.90
2018-08-30T10:19:11.449Z,9.97
2018-08-30T10:21:40.277Z,11.10
2018-08-30T10:24:09.148Z,11.13
2018-08-30T10:26:40.415Z,12.00
2018-08-30T10:29:10.281Z,10.83
2018-08-30T10:31:39.333Z,11.40
2018-08-30T10:34:09.081Z,13.13
2018-08-30T10:36:37.382Z,12.17
2018-08-30T10:39:07.894Z,14.57
2018-08-30T10:41:36.065Z,13.80
2018-08-30T10:44:05.338Z,15.97
2018-08-30T10:46:34.662Z,10.70
2018-08-30T10:49:04.938Z,11.63
2018-08-30T10:51:35.041Z,12.67
2018-08-30T10:54:04.095Z,11.90
2018-08-30T10:56:32.379Z,12.73
2018-08-30T10:59:02.270Z,13.17
2018-08-30T11:01:30.839Z,11.83
2018-08-30T11:03:59.091Z,11.53
2018-08-30T11:06:27.347Z,11.47
2018-08-30T11:08:55.600Z,11.00
2018-08-30T11:11:24.626Z,9.47
2018-08-30T11:13:52.653Z,11.30
2018-08-30T11:16:21.428Z,12.23
2018-08-30T11:18:51.825Z,11.90
2018-08-30T11:21:23.624Z,9.80
2018-08-30T11:23:54.436Z,8.83
2018-08-30T11:26:25.330Z,8.30
2018-08-30T11:28:54.072Z,8.47
2018-08-30T11:31:22.463Z,10.47
2018-08-30T11:33:50.714Z,9.23
2018-08-30T11:36:18.794Z,9.43
2018-08-30T11:38:47.443Z,8.93
2018-08-30T11:41:15.501Z,8.97
2018-08-30T11:43:43.680Z,10.43
2018-08-30T11:46:11.980Z,9.53
2018-08-30T11:48:40.810Z,8.73
2018-08-30T11:51:12.698Z,8.53
2018-08-30T11:53:40.762Z,8.40
2018-08-30T11:56:10.530Z,9.77
2018-08-30T11:58:38.789Z,9.00
2018-08-30T12:01:10.406Z,9.30
2018-08-30T12:03:38.680Z,25.53
2018-08-30T12:06:07.796Z,8.40
2018-08-30T12:08:37.762Z,9.57
2018-08-30T12:11:06.100Z,12.70
2018-08-30T12:13:34.038Z,9.00
2018-08-30T12:16:03.480Z,7.93
2018-08-30T12:18:32.531Z,8.00
2018-08-30T12:21:02.291Z,7.63
2018-08-30T12:23:30.457Z,9.00
2018-08-30T12:26:01.402Z,7.73
2018-08-30T12:28:31.545Z,11.30
2018-08-30T12:31:00.532Z,9.10
2018-08-30T12:33:28.829Z,9.27
2018-08-30T12:35:57.148Z,8.27
2018-08-30T12:38:25.314Z,8.50
2018-08-30T12:40:55.774Z,13.10
2018-08-30T12:43:24.658Z,7.70
2018-08-30T12:45:52.745Z,9.57
2018-08-30T12:48:20.885Z,10.77
2018-08-30T12:50:49.288Z,11.13
2018-08-30T12:53:18.559Z,9.03
2018-08-30T12:55:46.738Z,11.33
2018-08-30T12:58:15.004Z,11.13
2018-08-30T13:00:43.101Z,10.27
2018-08-30T13:03:11.890Z,12.47
2018-08-30T13:05:40.186Z,10.73
2018-08-30T13:08:09.400Z,10.23
2018-08-30T13:10:38.639Z,10.60
2018-08-30T13:13:07.900Z,9.17
2018-08-30T13:15:38.225Z,9.57
2018-08-30T13:18:07.624Z,8.33
2018-08-30T13:20:37.789Z,10.17
2018-08-30T13:23:05.840Z,8.73
2018-08-30T13:25:37.924Z,9.00
2018-08-30T13:28:05.893Z,7.73
2018-08-30T13:30:34.262Z,6.33
2018-08-30T13:33:03.231Z,11.10
2018-08-30T13:35:31.968Z,9.03
2018-08-30T13:38:00.131Z,8.50
2018-08-30T13:40:29.647Z,7.27
2018-08-30T13:42:59.270Z,9.53
2018-08-30T13:45:28.475Z,6.00
2018-08-30T13:47:57.587Z,7.53
2018-08-30T13:50:26.098Z,7.00
2018-08-30T13:52:55.176Z,6.23
2018-08-30T13:55:23.854Z,7.07
2018-08-30T13:57:52.952Z,5.40
2018-08-30T14:00:22.059Z,5.77
2018-08-30T14:02:51.071Z,7.87
2018-08-30T14:05:20.967Z,6.60
2018-08-30T14:07:49.567Z,6.57
2018-08-30T14:10:18.039Z,5.53
2018-08-30T14:12:48.453Z,6.13
2018-08-30T14:15:16.690Z,8.17
2018-08-30T14:17:45.567Z,7.27
2018-08-30T14:20:13.709Z,6.43
2018-08-30T14:22:41.843Z,5.87
2018-08-30T14:25:10.097Z,8.18
2018-08-30T14:27:39.076Z,7.83
2018-08-30T14:30:09.556Z,6.67
2018-08-30T14:32:38.933Z,5.80
2018-08-30T14:35:09.010Z,7.50
2018-08-30T14:37:37.084Z,6.70
2018-08-30T14:40:19.860Z,5.73
2018-08-30T14:42:47.887Z,5.63
2018-08-30T14:45:16.835Z,5.50
2018-08-30T14:47:46.930Z,5.00
2018-08-30T14:50:17.528Z,6.43
2018-08-30T14:52:47.312Z,6.30
2018-08-30T14:55:16.124Z,5.40
2018-08-30T14:57:44.929Z,4.77
2018-08-30T15:00:15.051Z,7.10
2018-08-30T15:02:44.735Z,5.57
2018-08-30T15:05:15.028Z,5.97
2018-08-30T15:07:47.788Z,4.40
2018-08-30T15:10:17.703Z,3.27
2018-08-30T15:12:46.713Z,6.77
2018-08-30T15:15:16.649Z,5.73
2018-08-30T15:17:45.782Z,4.53
2018-08-30T15:20:14.834Z,4.23
2018-08-30T15:22:43.694Z,10.03
2018-08-30T15:25:11.870Z,5.30
2018-08-30T15:27:43.002Z,5.27
2018-08-30T15:30:11.727Z,5.93
2018-08-30T15:32:41.515Z,4.77
2018-08-30T15:35:11.014Z,5.57
2018-08-30T15:37:40.283Z,5.17
2018-08-30T15:40:10.406Z,6.07
2018-08-30T15:42:39.363Z,5.87
2018-08-30T15:45:07.944Z,6.43
2018-08-30T15:47:36.743Z,5.27
2018-08-30T15:50:06.212Z,8.13
2018-08-30T15:52:35.354Z,5.70
2018-08-30T15:55:04.005Z,4.70
2018-08-30T15:57:32.293Z,6.10
2018-08-30T16:00:00.998Z,4.70
2018-08-30T16:02:29.443Z,7.40
2018-08-30T16:04:57.464Z,7.97
2018-08-30T16:07:25.618Z,7.27
2018-08-30T16:09:53.841Z,6.10
2018-08-30T16:12:22.692Z,6.47
2018-08-30T16:14:51.199Z,4.77
2018-08-30T16:17:20.715Z,5.50
2018-08-30T16:19:49.843Z,6.23
2018-08-30T16:22:17.977Z,6.50
2018-08-30T16:24:46.129Z,5.87
2018-08-30T16:27:15.278Z,6.93
2018-08-30T16:29:43.430Z,4.60
2018-08-30T16:32:11.533Z,6.13
2018-08-30T16:34:41.028Z,6.70
2018-08-30T16:37:09.138Z,6.97
2018-08-30T16:39:38.659Z,5.17
2018-08-30T16:42:09.786Z,7.70
2018-08-30T16:44:38.886Z,6.43
2018-08-30T16:47:07.893Z,5.73
2018-08-30T16:49:38.371Z,6.40
2018-08-30T16:52:08.316Z,6.50
2018-08-30T16:54:36.598Z,5.60
2018-08-30T16:57:06.471Z,8.27
2018-08-30T16:59:36.998Z,6.77
2018-08-30T17:02:06.971Z,6.33
2018-08-30T17:04:35.227Z,6.03
2018-08-30T17:07:05.433Z,6.57
2018-08-30T17:09:36.988Z,5.80
2018-08-30T17:12:07.769Z,7.20
2018-08-30T17:14:36.940Z,7.40
2018-08-30T17:17:05.159Z,6.23
2018-08-30T17:19:33.202Z,6.10
2018-08-30T17:22:02.868Z,7.27
2018-08-30T17:24:34.598Z,6.17
2018-08-30T17:27:02.973Z,6.53
2018-08-30T17:29:31.637Z,8.23
2018-08-30T17:32:00.529Z,6.67
2018-08-30T17:37:05.609Z,7.03
2018-08-30T17:39:35.799Z,5.80
2018-08-30T17:42:05.168Z,5.53
2018-08-30T17:44:33.324Z,7.57
2018-08-30T17:47:01.423Z,6.53
2018-08-30T17:49:30.232Z,7.47
2018-08-30T17:51:58.954Z,6.93
2018-08-30T17:54:27.215Z,5.20
2018-08-30T17:56:56.632Z,6.33
2018-08-30T17:59:26.746Z,8.83
2018-08-30T18:01:57.838Z,8.67
2018-08-30T18:04:28.622Z,7.17
2018-08-30T18:06:59.512Z,5.30
2018-08-30T18:09:28.026Z,7.90
2018-08-30T18:11:57.777Z,10.10
2018-08-30T18:14:27.033Z,6.77
2018-08-30T18:16:56.570Z,7.30
2018-08-30T18:19:26.060Z,6.53
2018-08-30T18:21:55.226Z,7.37
2018-08-30T18:24:24.333Z,7.77
2018-08-30T18:26:54.378Z,12.57
2018-08-30T18:29:27.572Z,9.00
2018-08-30T18:31:57.597Z,6.53
2018-08-30T18:34:31.478Z,15.17
2018-08-30T18:37:05.419Z,7.30
2018-08-30T18:39:54.756Z,8.93
2018-08-30T18:42:55.198Z,9.17
2018-08-30T18:45:28.431Z,9.80
2018-08-30T18:51:28.035Z,7.07
2018-08-30T18:54:08.009Z,6.23
2018-08-30T18:56:39.695Z,9.03
2018-08-30T18:59:12.057Z,10.90
2018-08-30T19:02:04.528Z,10.37
2018-08-30T19:04:38.685Z,12.23
2018-08-30T19:07:32.425Z,11.33
2018-08-30T19:10:14.753Z,10.70
2018-08-30T19:12:44.706Z,9.60
2018-08-30T19:15:19.035Z,7.93
2018-08-30T19:18:10.688Z,7.07
2018-08-30T19:20:40.785Z,8.60
2018-08-30T19:23:09.884Z,8.60
2018-08-30T19:28:32.740Z,7.10
2018-08-30T19:31:01.659Z,8.27
2018-08-30T19:33:30.784Z,8.00
2018-08-30T19:36:13.476Z,8.33
2018-08-30T19:39:09.387Z,7.97
2018-08-30T19:44:55.573Z,6.33
2018-08-30T19:47:39.806Z,9.30
2018-08-30T19:50:52.515Z,6.30
2018-08-30T19:53:47.113Z,7.30
2018-08-30T19:56:42.371Z,5.73
2018-08-30T19:59:24.613Z,8.47
2018-08-30T20:01:55.553Z,7.97
2018-08-30T20:04:24.553Z,10.50
2018-08-30T20:07:31.781Z,6.93
2018-08-30T20:10:22.742Z,7.33
2018-08-30T20:13:02.321Z,8.97
2018-08-30T20:15:51.513Z,6.77
2018-08-30T20:22:29.451Z,7.87
2018-08-30T20:24:59.738Z,10.17
2018-08-30T20:27:38.565Z,7.30
2018-08-30T20:30:11.304Z,7.10
2018-08-30T20:32:41.195Z,10.00
2018-08-30T20:35:19.631Z,6.93
2018-08-30T20:40:45.466Z,7.27
2018-08-30T20:43:15.859Z,11.00
2018-08-30T20:45:50.251Z,8.33
2018-08-30T20:48:19.776Z,8.93
2018-08-30T20:50:49.376Z,9.10
2018-08-30T20:53:25.181Z,9.53
2018-08-30T20:58:31.489Z,7.73
2018-08-30T21:01:06.549Z,8.43
2018-08-30T21:04:03.254Z,8.90
2018-08-30T21:06:37.484Z,7.03
2018-08-30T21:09:10.443Z,8.33
2018-08-30T21:11:41.436Z,9.33
2018-08-30T21:14:10.112Z,11.07
2018-08-30T21:16:42.525Z,8.70
2018-08-30T21:19:12.091Z,6.90
2018-08-30T21:21:46.625Z,9.63
2018-08-30T21:24:17.677Z,7.73
2018-08-30T21:26:47.306Z,7.23
2018-08-30T21:29:16.874Z,8.43
2018-08-30T21:31:47.908Z,9.43
2018-08-30T21:34:20.515Z,7.73
2018-08-30T21:36:52.593Z,8.20
2018-08-30T21:39:22.727Z,6.13
2018-08-30T21:41:52.488Z,7.17
2018-08-30T21:44:23.730Z,5.63
2018-08-30T21:46:53.051Z,8.60
2018-08-30T21:49:23.415Z,6.90
2018-08-30T21:51:53.160Z,8.47
2018-08-30T21:54:23.306Z,8.07
2018-08-30T21:56:53.518Z,10.00
2018-08-30T21:59:30.545Z,8.23
2018-08-30T22:01:59.207Z,10.50
2018-08-30T22:04:28.047Z,7.47
2018-08-30T22:06:57.063Z,5.47
2018-08-30T22:09:33.882Z,6.50
2018-08-30T22:12:06.566Z,6.67
2018-08-30T22:14:37.921Z,7.57
2018-08-30T22:17:11.513Z,7.47
2018-08-30T22:19:43.266Z,10.70
2018-08-30T22:22:18.470Z,7.57
2018-08-30T22:24:47.207Z,7.03
2018-08-30T22:27:18.096Z,8.60
2018-08-30T22:29:46.203Z,7.50
2018-08-30T22:32:16.710Z,7.67
2018-08-30T22:34:46.514Z,8.70
2018-08-30T22:37:15.371Z,7.97
2018-08-30T22:39:49.519Z,6.53
2018-08-30T22:42:18.501Z,6.70
2018-08-30T22:47:28.111Z,8.40
2018-08-30T22:49:57.685Z,4.60
2018-08-30T22:52:28.799Z,6.43
2018-08-30T22:54:59.525Z,8.30
2018-08-30T22:57:36.924Z,6.73
2018-08-30T23:00:18.457Z,7.67
2018-08-30T23:02:51.996Z,7.83
2018-08-30T23:05:25.872Z,8.17
2018-08-30T23:07:53.874Z,7.13
2018-08-30T23:10:22.665Z,8.53
2018-08-30T23:12:57.703Z,7.90
2018-08-30T23:15:26.714Z,6.73
2018-08-30T23:17:57.591Z,6.87
2018-08-30T23:20:31.101Z,6.13
2018-08-30T23:23:01.120Z,8.27
2018-08-30T23:25:34.258Z,8.27
2018-08-30T23:28:07.791Z,4.37
2018-08-30T23:30:36.630Z,9.00
2018-08-30T23:33:05.720Z,5.70
2018-08-30T23:35:53.240Z,8.83
2018-08-30T23:38:22.963Z,9.20
2018-08-30T23:41:04.117Z,8.30
2018-08-30T23:43:38.236Z,8.10
2018-08-30T23:46:06.958Z,11.53
2018-08-30T23:48:38.930Z,8.37
2018-08-30T23:51:08.045Z,7.37
2018-08-30T23:53:37.571Z,8.73
2018-08-30T23:56:07.269Z,9.07
2018-08-30T23:58:47.189Z,7.13
